createdAt,value
2023-07-18T00:00:29.137Z,92.49
2023-07-18T00:01:29.000Z,92.35
2023-07-18T00:02:28.985Z,92.44
2023-07-18T00:03:29.068Z,92.44
2023-07-18T00:04:28.972Z,92.87
2023-07-18T00:05:28.959Z,92.78
2023-07-18T00:06:28.959Z,93.74
2023-07-18T00:07:28.957Z,95.65
2023-07-18T00:08:28.954Z,96.51
2023-07-18T00:09:28.925Z,96.51
2023-07-18T00:10:28.983Z,96.37
2023-07-18T00:11:28.973Z,96.84
2023-07-18T00:12:28.929Z,96.75
2023-07-18T00:13:28.951Z,96.75
2023-07-18T00:14:28.918Z,96.75
2023-07-18T00:15:28.881Z,95.65
2023-07-18T00:16:28.950Z,95.60
2023-07-18T00:17:28.907Z,95.89
2023-07-18T00:18:28.924Z,95.94
2023-07-18T00:19:28.869Z,95.98
2023-07-18T00:20:28.882Z,96.08
2023-07-18T00:21:28.859Z,96.56
2023-07-18T00:22:28.976Z,96.66
2023-07-18T00:23:28.846Z,95.89
2023-07-18T00:24:28.839Z,96.27
2023-07-18T00:25:28.850Z,96.37
2023-07-18T00:26:28.869Z,95.89
2023-07-18T00:27:28.859Z,95.89
2023-07-18T00:28:28.820Z,95.98
2023-07-18T00:29:28.808Z,96.08
2023-07-18T00:30:28.824Z,96.47
2023-07-18T00:31:28.885Z,96.08
2023-07-18T00:32:28.827Z,95.70
2023-07-18T00:33:28.778Z,96.27
2023-07-18T00:34:28.776Z,96.27
2023-07-18T00:35:28.766Z,95.51
2023-07-18T00:36:28.770Z,95.51
2023-07-18T00:37:28.755Z,94.26
2023-07-18T00:38:28.759Z,93.59
2023-07-18T00:39:28.743Z,93.59
2023-07-18T00:40:28.763Z,93.54
2023-07-18T00:41:28.731Z,94.12
2023-07-18T00:42:28.758Z,94.69
2023-07-18T00:43:28.749Z,94.60
2023-07-18T00:44:28.713Z,94.89
2023-07-18T00:45:28.690Z,94.69
2023-07-18T00:46:28.734Z,95.36
2023-07-18T00:47:28.745Z,95.17
2023-07-18T00:48:28.709Z,94.84
2023-07-18T00:49:28.676Z,95.07
2023-07-18T00:50:28.665Z,95.07
2023-07-18T00:51:28.663Z,95.51
2023-07-18T00:52:28.666Z,95.22
2023-07-18T00:53:28.647Z,95.61
2023-07-18T00:54:28.663Z,95.12
2023-07-18T00:55:28.648Z,95.12
2023-07-18T00:56:28.638Z,95.27
2023-07-18T00:57:28.625Z,95.03
2023-07-18T00:58:28.647Z,95.22
2023-07-18T00:59:28.639Z,95.03
2023-07-18T01:00:28.620Z,94.93
2023-07-18T01:01:28.656Z,95.22
2023-07-18T01:02:28.703Z,95.61
2023-07-18T01:03:28.655Z,96.18
2023-07-18T01:04:28.580Z,96.47
2023-07-18T01:05:28.574Z,96.94
2023-07-18T01:06:28.566Z,96.66
2023-07-18T01:07:28.555Z,96.47
2023-07-18T01:08:28.540Z,96.27
2023-07-18T01:09:28.543Z,96.27
2023-07-18T01:10:28.544Z,96.84
2023-07-18T01:11:28.521Z,96.84
2023-07-18T01:12:28.519Z,96.47
2023-07-18T01:13:28.523Z,96.66
2023-07-18T01:14:28.521Z,96.75
2023-07-18T01:15:28.575Z,96.47
2023-07-18T01:16:28.509Z,96.47
2023-07-18T01:17:28.537Z,96.61
2023-07-18T01:18:28.489Z,96.47
2023-07-18T01:19:28.463Z,96.61
2023-07-18T01:20:28.748Z,96.70
2023-07-18T01:21:28.658Z,96.61
2023-07-18T01:22:28.499Z,96.89
2023-07-18T01:23:28.458Z,96.42
2023-07-18T01:24:28.460Z,96.89
2023-07-18T01:25:28.459Z,96.80
2023-07-18T01:26:28.418Z,96.89
2023-07-18T01:27:28.416Z,97.37
2023-07-18T01:28:28.417Z,97.37
2023-07-18T01:29:28.416Z,97.37
2023-07-18T01:30:28.403Z,97.28
2023-07-18T01:31:28.446Z,97.47
2023-07-18T01:32:28.419Z,98.90
2023-07-18T01:33:28.379Z,99.99
2023-07-18T01:34:28.384Z,99.99
2023-07-18T01:35:28.360Z,99.99
2023-07-18T01:36:28.350Z,99.99
2023-07-18T01:37:28.390Z,99.99
2023-07-18T01:38:28.358Z,99.99
2023-07-18T01:39:28.317Z,99.91
2023-07-18T01:40:28.336Z,99.99
2023-07-18T01:41:28.546Z,99.99
2023-07-18T01:42:28.316Z,99.99
2023-07-18T01:43:28.318Z,99.72
2023-07-18T01:44:28.366Z,99.99
2023-07-18T01:45:28.286Z,99.99
2023-07-18T01:46:30.049Z,99.99
2023-07-18T01:47:28.419Z,99.99
2023-07-18T01:48:28.273Z,99.99
2023-07-18T01:49:28.266Z,99.99
2023-07-18T01:50:28.266Z,99.99
2023-07-18T01:51:28.251Z,99.81
2023-07-18T01:52:28.227Z,99.81
2023-07-18T01:53:28.271Z,99.15
2023-07-18T01:54:28.229Z,99.24
2023-07-18T01:55:28.286Z,99.91
2023-07-18T01:56:28.199Z,99.99
2023-07-18T01:57:28.222Z,99.99
2023-07-18T01:58:28.195Z,99.99
2023-07-18T01:59:28.233Z,99.99
2023-07-18T02:00:28.172Z,99.99
2023-07-18T02:01:28.263Z,99.99
2023-07-18T02:02:28.251Z,99.05
2023-07-18T02:03:28.239Z,98.66
2023-07-18T02:04:28.176Z,98.28
2023-07-18T02:05:28.206Z,98.90
2023-07-18T02:06:28.139Z,98.52
2023-07-18T02:07:28.146Z,99.10
2023-07-18T02:08:28.121Z,99.10
2023-07-18T02:09:28.122Z,98.90
2023-07-18T02:10:28.109Z,98.71
2023-07-18T02:11:28.108Z,98.90
2023-07-18T02:12:28.103Z,99.10
2023-07-18T02:13:28.122Z,98.81
2023-07-18T02:14:28.076Z,98.81
2023-07-18T02:15:28.100Z,99.00
2023-07-18T02:16:28.124Z,99.10
2023-07-18T02:17:28.115Z,98.90
2023-07-18T02:18:28.055Z,98.81
2023-07-18T02:19:28.077Z,99.10
2023-07-18T02:20:28.039Z,99.00
2023-07-18T02:21:28.060Z,98.71
2023-07-18T02:22:28.071Z,98.24
2023-07-18T02:23:28.022Z,98.52
2023-07-18T02:24:28.021Z,98.90
2023-07-18T02:25:27.996Z,98.95
2023-07-18T02:26:28.018Z,98.85
2023-07-18T02:27:28.028Z,99.62
2023-07-18T02:28:28.005Z,99.71
2023-07-18T02:29:27.991Z,99.90
2023-07-18T02:30:27.980Z,99.62
2023-07-18T02:31:27.981Z,99.81
2023-07-18T02:32:27.956Z,99.99
2023-07-18T02:33:27.979Z,99.99
2023-07-18T02:34:27.962Z,99.99
2023-07-18T02:35:27.971Z,99.99
2023-07-18T02:36:27.967Z,99.99
2023-07-18T02:37:27.917Z,99.99
2023-07-18T02:38:27.945Z,99.99
2023-07-18T02:39:27.934Z,99.99
2023-07-18T02:40:27.900Z,99.99
2023-07-18T02:41:27.895Z,99.99
2023-07-18T02:42:27.888Z,99.99
2023-07-18T02:43:27.913Z,99.99
2023-07-18T02:44:27.916Z,99.99
2023-07-18T02:45:27.868Z,99.99
2023-07-18T02:46:27.868Z,99.99
2023-07-18T02:47:27.875Z,99.99
2023-07-18T02:48:27.887Z,99.99
2023-07-18T02:49:27.876Z,99.99
2023-07-18T02:50:27.857Z,99.99
2023-07-18T02:51:27.838Z,99.99
2023-07-18T02:52:27.841Z,99.99
2023-07-18T02:53:27.819Z,99.99
2023-07-18T02:54:27.795Z,99.99
2023-07-18T02:55:27.789Z,99.99
2023-07-18T02:56:27.791Z,99.99
2023-07-18T02:57:27.894Z,99.99
2023-07-18T02:58:27.761Z,99.99
2023-07-18T02:59:27.785Z,99.99
2023-07-18T03:00:27.777Z,99.99
2023-07-18T03:01:27.801Z,99.99
2023-07-18T03:02:27.753Z,99.99
2023-07-18T03:03:27.822Z,99.99
2023-07-18T03:04:27.750Z,99.99
2023-07-18T03:05:27.725Z,99.99
2023-07-18T03:06:27.768Z,99.99
2023-07-18T03:07:27.796Z,99.99
2023-07-18T03:08:27.710Z,99.99
2023-07-18T03:09:27.699Z,99.99
2023-07-18T03:10:27.693Z,99.99
2023-07-18T03:11:27.701Z,99.99
2023-07-18T03:12:27.664Z,99.99
2023-07-18T03:13:27.654Z,99.99
2023-07-18T03:14:27.644Z,99.99
2023-07-18T03:15:27.640Z,99.99
2023-07-18T03:16:27.646Z,99.99
2023-07-18T03:17:27.699Z,99.99
2023-07-18T03:18:27.636Z,99.99
2023-07-18T03:19:27.636Z,99.99
2023-07-18T03:20:27.664Z,99.99
2023-07-18T03:21:27.615Z,99.99
2023-07-18T03:22:27.628Z,99.99
2023-07-18T03:23:27.681Z,99.99
2023-07-18T03:24:27.588Z,99.99
2023-07-18T03:25:27.558Z,99.99
2023-07-18T03:26:27.569Z,99.99
2023-07-18T03:27:27.562Z,99.99
2023-07-18T03:28:27.538Z,99.99
2023-07-18T03:29:27.565Z,99.99
2023-07-18T03:30:27.517Z,99.99
2023-07-18T03:31:27.530Z,99.99
2023-07-18T03:32:27.562Z,99.99
2023-07-18T03:33:27.514Z,99.99
2023-07-18T03:34:27.499Z,99.99
2023-07-18T03:35:27.494Z,99.99
2023-07-18T03:36:27.509Z,99.99
2023-07-18T03:37:27.481Z,99.99
2023-07-18T03:38:27.491Z,99.99
2023-07-18T03:39:27.481Z,99.99
2023-07-18T03:40:27.458Z,99.99
2023-07-18T03:41:27.440Z,99.99
2023-07-18T03:42:27.445Z,99.99
2023-07-18T03:43:27.427Z,99.99
2023-07-18T03:44:27.429Z,99.99
2023-07-18T03:45:27.425Z,99.99
2023-07-18T03:46:27.454Z,99.99
2023-07-18T03:47:27.500Z,99.99
2023-07-18T03:48:27.454Z,99.99
2023-07-18T03:49:27.406Z,99.99
2023-07-18T03:50:27.367Z,99.99
2023-07-18T03:51:28.988Z,99.99
2023-07-18T03:52:27.384Z,99.99
2023-07-18T03:53:27.377Z,99.99
2023-07-18T03:54:27.357Z,99.99
2023-07-18T03:55:27.374Z,99.99
2023-07-18T03:56:27.366Z,99.99
2023-07-18T03:57:27.338Z,99.99
2023-07-18T03:58:27.357Z,99.99
2023-07-18T03:59:27.306Z,99.99
2023-07-18T04:00:27.307Z,99.99
2023-07-18T04:01:27.521Z,99.99
2023-07-18T04:02:27.301Z,99.99
2023-07-18T04:03:27.338Z,99.99
2023-07-18T04:04:27.490Z,99.99
2023-07-18T04:05:27.275Z,99.99
2023-07-18T04:06:27.268Z,99.99
2023-07-18T04:07:27.269Z,99.99
2023-07-18T04:08:27.249Z,99.99
2023-07-18T04:09:27.282Z,99.99
2023-07-18T04:10:27.257Z,99.99
2023-07-18T04:11:27.247Z,99.99
2023-07-18T04:12:27.225Z,99.99
2023-07-18T04:13:27.218Z,99.99
2023-07-18T04:14:27.237Z,99.99
2023-07-18T04:15:27.205Z,99.99
2023-07-18T04:16:27.617Z,99.99
2023-07-18T04:17:27.235Z,99.52
2023-07-18T04:18:27.203Z,99.99
2023-07-18T04:19:27.224Z,99.99
2023-07-18T04:20:27.213Z,99.99
2023-07-18T04:21:27.155Z,99.99
2023-07-18T04:22:27.195Z,99.99
2023-07-18T04:23:27.158Z,99.99
2023-07-18T04:24:27.153Z,99.99
2023-07-18T04:25:27.134Z,99.99
2023-07-18T04:26:27.122Z,99.99
2023-07-18T04:27:27.136Z,99.99
2023-07-18T04:28:27.142Z,99.99
2023-07-18T04:29:27.109Z,99.99
2023-07-18T04:30:27.090Z,99.99
2023-07-18T04:31:27.337Z,99.99
2023-07-18T04:32:27.140Z,99.99
2023-07-18T04:33:27.096Z,99.99
2023-07-18T04:34:27.086Z,99.99
2023-07-18T04:35:27.266Z,99.99
2023-07-18T04:36:27.275Z,99.99
2023-07-18T04:37:27.083Z,99.99
2023-07-18T04:38:27.020Z,99.99
2023-07-18T04:39:27.034Z,99.99
2023-07-18T04:40:27.045Z,99.99
2023-07-18T04:41:34.961Z,99.99
2023-07-18T04:42:26.993Z,99.99
2023-07-18T04:43:27.038Z,99.99
2023-07-18T04:44:26.983Z,99.99
2023-07-18T04:45:26.988Z,99.99
2023-07-18T04:46:27.056Z,99.99
2023-07-18T04:47:27.166Z,99.99
2023-07-18T04:48:26.950Z,99.99
2023-07-18T04:49:26.955Z,99.99
2023-07-18T04:50:29.976Z,99.99
2023-07-18T04:51:26.941Z,99.99
2023-07-18T04:52:26.968Z,99.99
2023-07-18T04:53:26.971Z,99.99
2023-07-18T04:54:27.136Z,99.99
2023-07-18T04:55:26.914Z,99.99
2023-07-18T04:56:26.897Z,99.99
2023-07-18T04:57:26.896Z,99.99
2023-07-18T04:58:26.896Z,99.99
2023-07-18T04:59:26.914Z,99.99
2023-07-18T05:00:26.882Z,99.99
2023-07-18T05:01:27.361Z,99.99
2023-07-18T05:02:27.075Z,99.99
2023-07-18T05:03:26.984Z,99.99
2023-07-18T05:04:26.869Z,99.99
2023-07-18T05:05:26.840Z,99.77
2023-07-18T05:06:26.874Z,98.71
2023-07-18T05:07:26.844Z,99.48
2023-07-18T05:08:26.815Z,99.29
2023-07-18T05:09:26.808Z,99.34
2023-07-18T05:10:27.065Z,97.80
2023-07-18T05:11:26.807Z,97.42
2023-07-18T05:12:26.790Z,97.61
2023-07-18T05:13:26.794Z,96.56
2023-07-18T05:14:26.806Z,96.18
2023-07-18T05:15:26.800Z,96.47
2023-07-18T05:16:26.858Z,96.37
2023-07-18T05:17:26.792Z,95.70
2023-07-18T05:18:26.755Z,97.23
2023-07-18T05:19:26.751Z,97.04
2023-07-18T05:20:28.972Z,96.94
2023-07-18T05:21:26.767Z,96.84
2023-07-18T05:22:26.821Z,96.84
2023-07-18T05:23:26.747Z,96.56
2023-07-18T05:24:26.727Z,96.22
2023-07-18T05:25:26.727Z,96.42
2023-07-18T05:26:26.701Z,95.75
2023-07-18T05:27:26.698Z,95.36
2023-07-18T05:28:26.706Z,93.83
2023-07-18T05:29:26.690Z,94.69
2023-07-18T05:30:26.686Z,94.50
2023-07-18T05:31:26.762Z,94.64
2023-07-18T05:32:26.663Z,93.59
2023-07-18T05:33:26.684Z,93.83
2023-07-18T05:34:27.939Z,94.31
2023-07-18T05:35:26.655Z,93.73
2023-07-18T05:36:26.679Z,95.26
2023-07-18T05:37:26.633Z,95.46
2023-07-18T05:38:26.646Z,94.17
2023-07-18T05:39:26.611Z,93.97
2023-07-18T05:40:26.609Z,94.02
2023-07-18T05:41:26.621Z,94.35
2023-07-18T05:42:26.609Z,94.74
2023-07-18T05:43:26.608Z,93.30
2023-07-18T05:44:26.603Z,94.26
2023-07-18T05:45:26.591Z,92.34
2023-07-18T05:46:26.634Z,92.58
2023-07-18T05:47:26.734Z,92.48
2023-07-18T05:48:26.640Z,92.58
2023-07-18T05:49:26.596Z,91.66
2023-07-18T05:50:26.561Z,90.56
2023-07-18T05:51:26.608Z,90.61
2023-07-18T05:52:26.594Z,91.19
2023-07-18T05:53:26.589Z,90.66
2023-07-18T05:54:26.650Z,90.85
2023-07-18T05:55:26.546Z,90.75
2023-07-18T05:56:26.539Z,91.14
2023-07-18T05:57:26.533Z,92.86
2023-07-18T05:58:26.513Z,90.56
2023-07-18T05:59:26.529Z,91.57
2023-07-18T06:00:26.480Z,89.94
2023-07-18T06:01:26.569Z,91.19
2023-07-18T06:02:26.517Z,90.80
2023-07-18T06:03:26.623Z,89.55
2023-07-18T06:04:26.507Z,90.03
2023-07-18T06:05:26.803Z,90.03
2023-07-18T06:06:26.461Z,89.84
2023-07-18T06:07:26.486Z,89.94
2023-07-18T06:08:26.471Z,90.13
2023-07-18T06:09:26.442Z,89.12
2023-07-18T06:10:26.445Z,88.25
2023-07-18T06:11:26.435Z,89.31
2023-07-18T06:12:26.428Z,89.31
2023-07-18T06:13:26.459Z,89.31
2023-07-18T06:14:26.437Z,88.35
2023-07-18T06:15:26.414Z,88.25
2023-07-18T06:16:26.517Z,89.89
2023-07-18T06:17:26.434Z,87.87
2023-07-18T06:18:26.387Z,87.24
2023-07-18T06:19:26.403Z,88.01
2023-07-18T06:20:26.428Z,87.24
2023-07-18T06:21:26.378Z,86.38
2023-07-18T06:22:26.468Z,87.72
2023-07-18T06:23:26.352Z,86.57
2023-07-18T06:24:26.373Z,86.28
2023-07-18T06:25:26.359Z,86.95
2023-07-18T06:26:26.353Z,86.99
2023-07-18T06:27:26.362Z,86.90
2023-07-18T06:28:26.355Z,87.96
2023-07-18T06:29:26.339Z,85.98
2023-07-18T06:30:26.326Z,84.30
2023-07-18T06:31:26.367Z,85.65
2023-07-18T06:32:26.356Z,85.75
2023-07-18T06:33:26.319Z,86.04
2023-07-18T06:34:26.343Z,85.84
2023-07-18T06:35:26.471Z,85.40
2023-07-18T06:36:26.386Z,85.31
2023-07-18T06:37:26.487Z,83.48
2023-07-18T06:38:26.286Z,83.00
2023-07-18T06:39:26.273Z,82.57
2023-07-18T06:40:26.316Z,84.94
2023-07-18T06:41:26.288Z,87.29
2023-07-18T06:42:26.275Z,84.50
2023-07-18T06:43:26.280Z,83.15
2023-07-18T06:44:26.270Z,84.59
2023-07-18T06:45:26.248Z,83.06
2023-07-18T06:46:26.325Z,82.19
2023-07-18T06:47:26.266Z,82.96
2023-07-18T06:48:26.239Z,82.96
2023-07-18T06:49:26.429Z,83.53
2023-07-18T06:50:26.280Z,84.88
2023-07-18T06:51:26.347Z,82.42
2023-07-18T06:52:26.269Z,82.52
2023-07-18T06:53:26.419Z,81.65
2023-07-18T06:54:26.215Z,81.71
2023-07-18T06:55:26.215Z,82.23
2023-07-18T06:56:26.214Z,81.75
2023-07-18T06:57:26.203Z,81.94
2023-07-18T06:58:26.189Z,80.21
2023-07-18T06:59:26.222Z,80.98
2023-07-18T07:00:26.229Z,81.27
2023-07-18T07:01:26.191Z,80.63
2023-07-18T07:02:26.297Z,81.40
2023-07-18T07:03:27.838Z,79.28
2023-07-18T07:04:26.197Z,78.56
2023-07-18T07:05:26.168Z,78.88
2023-07-18T07:06:26.142Z,78.79
2023-07-18T07:07:26.205Z,77.76
2023-07-18T07:08:26.140Z,75.93
2023-07-18T07:09:26.149Z,74.88
2023-07-18T07:10:26.205Z,74.49
2023-07-18T07:11:26.161Z,75.26
2023-07-18T07:12:35.428Z,76.48
2023-07-18T07:13:26.158Z,76.09
2023-07-18T07:14:26.130Z,75.51
2023-07-18T07:15:26.113Z,75.36
2023-07-18T07:16:26.162Z,74.74
2023-07-18T07:17:26.174Z,74.68
2023-07-18T07:18:26.107Z,74.16
2023-07-18T07:19:26.103Z,74.16
2023-07-18T07:20:26.161Z,75.42
2023-07-18T07:21:26.087Z,74.84
2023-07-18T07:22:26.142Z,74.65
2023-07-18T07:23:26.151Z,74.84
2023-07-18T07:24:26.062Z,74.30
2023-07-18T07:25:26.071Z,73.43
2023-07-18T07:26:26.086Z,73.05
2023-07-18T07:27:26.060Z,73.82
2023-07-18T07:28:26.071Z,75.59
2023-07-18T07:29:26.087Z,73.47
2023-07-18T07:30:26.046Z,73.08
2023-07-18T07:31:26.195Z,72.12
2023-07-18T07:32:26.096Z,71.79
2023-07-18T07:33:27.135Z,74.05
2023-07-18T07:34:26.044Z,74.66
2023-07-18T07:35:26.039Z,71.77
2023-07-18T07:36:26.046Z,70.90
2023-07-18T07:37:26.031Z,72.83
2023-07-18T07:38:26.031Z,70.13
2023-07-18T07:39:26.051Z,69.64
2023-07-18T07:40:26.041Z,70.03
2023-07-18T07:41:26.041Z,70.28
2023-07-18T07:42:26.017Z,71.83
2023-07-18T07:43:26.017Z,71.77
2023-07-18T07:44:26.009Z,72.54
2023-07-18T07:45:25.986Z,70.84
2023-07-18T07:46:26.023Z,69.10
2023-07-18T07:47:26.023Z,68.23
2023-07-18T07:48:25.975Z,67.78
2023-07-18T07:49:25.973Z,67.46
2023-07-18T07:50:25.988Z,68.23
2023-07-18T07:51:26.004Z,70.16
2023-07-18T07:52:25.990Z,69.16
2023-07-18T07:53:25.999Z,70.13
2023-07-18T07:54:25.958Z,70.16
2023-07-18T07:55:26.011Z,69.00
2023-07-18T07:56:25.981Z,67.27
2023-07-18T07:57:25.988Z,67.65
2023-07-18T07:58:26.005Z,67.97
2023-07-18T07:59:25.956Z,66.91
2023-07-18T08:00:25.940Z,66.40
2023-07-18T08:01:25.946Z,67.07
2023-07-18T08:02:26.031Z,67.55
2023-07-18T08:03:25.950Z,67.17
2023-07-18T08:04:26.028Z,67.75
2023-07-18T08:05:25.940Z,67.55
2023-07-18T08:06:25.950Z,67.69
2023-07-18T08:07:25.914Z,67.01
2023-07-18T08:08:25.896Z,66.82
2023-07-18T08:09:25.914Z,67.24
2023-07-18T08:10:25.966Z,65.20
2023-07-18T08:11:25.940Z,64.59
2023-07-18T08:12:25.896Z,65.47
2023-07-18T08:13:26.440Z,67.01
2023-07-18T08:14:25.878Z,67.72
2023-07-18T08:15:25.872Z,65.59
2023-07-18T08:16:25.876Z,64.11
2023-07-18T08:17:25.972Z,65.37
2023-07-18T08:18:26.092Z,65.66
2023-07-18T08:19:25.879Z,65.20
2023-07-18T08:20:25.875Z,64.66
2023-07-18T08:21:25.851Z,62.92
2023-07-18T08:22:25.943Z,64.56
2023-07-18T08:23:25.861Z,63.50
2023-07-18T08:24:25.852Z,62.73
2023-07-18T08:25:25.836Z,65.05
2023-07-18T08:26:25.852Z,64.76
2023-07-18T08:27:25.889Z,63.53
2023-07-18T08:28:25.826Z,64.40
2023-07-18T08:29:25.902Z,62.44
2023-07-18T08:30:25.838Z,62.44
2023-07-18T08:31:25.855Z,62.95
2023-07-18T08:32:28.095Z,62.73
2023-07-18T08:33:25.823Z,63.31
2023-07-18T08:34:25.801Z,64.27
2023-07-18T08:35:25.803Z,64.89
2023-07-18T08:36:25.805Z,63.73
2023-07-18T08:37:25.795Z,61.50
2023-07-18T08:38:25.803Z,62.50
2023-07-18T08:39:25.809Z,61.15
2023-07-18T08:40:26.008Z,61.89
2023-07-18T08:41:25.835Z,62.27
2023-07-18T08:42:25.816Z,61.27
2023-07-18T08:43:25.828Z,62.60
2023-07-18T08:44:25.813Z,64.18
2023-07-18T08:45:25.801Z,63.60
2023-07-18T08:46:25.778Z,62.05
2023-07-18T08:47:25.780Z,62.95
2023-07-18T08:48:25.868Z,61.69
2023-07-18T08:49:25.794Z,61.72
2023-07-18T08:50:25.813Z,62.59
2023-07-18T08:51:25.973Z,61.53
2023-07-18T08:52:25.843Z,60.24
2023-07-18T08:53:25.752Z,59.95
2023-07-18T08:54:25.764Z,60.99
2023-07-18T08:55:25.781Z,62.56
2023-07-18T08:56:25.768Z,61.63
2023-07-18T08:57:25.760Z,60.66
2023-07-18T08:58:25.767Z,60.08
2023-07-18T08:59:25.778Z,59.18
2023-07-18T09:00:25.932Z,59.76
2023-07-18T09:01:25.742Z,60.14
2023-07-18T09:02:25.768Z,59.15
2023-07-18T09:03:25.793Z,59.08
2023-07-18T09:04:25.729Z,60.14
2023-07-18T09:05:25.757Z,60.14
2023-07-18T09:06:25.709Z,60.82
2023-07-18T09:07:25.719Z,59.38
2023-07-18T09:08:25.706Z,59.56
2023-07-18T09:09:25.702Z,60.37
2023-07-18T09:10:25.708Z,60.47
2023-07-18T09:11:25.766Z,60.88
2023-07-18T09:12:25.690Z,56.43
2023-07-18T09:13:25.699Z,55.46
2023-07-18T09:14:25.723Z,55.94
2023-07-18T09:15:25.690Z,57.11
2023-07-18T09:16:25.755Z,57.98
2023-07-18T09:17:25.943Z,58.27
2023-07-18T09:18:25.670Z,57.69
2023-07-18T09:19:25.671Z,57.20
2023-07-18T09:20:25.666Z,57.40
2023-07-18T09:21:25.680Z,57.40
2023-07-18T09:22:25.794Z,58.17
2023-07-18T09:23:25.680Z,57.59
2023-07-18T09:24:25.659Z,56.72
2023-07-18T09:25:25.648Z,56.92
2023-07-18T09:26:25.663Z,56.52
2023-07-18T09:27:25.852Z,57.14
2023-07-18T09:28:25.643Z,55.30
2023-07-18T09:29:25.634Z,54.79
2023-07-18T09:30:25.676Z,55.88
2023-07-18T09:31:25.781Z,55.20
2023-07-18T09:32:25.669Z,54.45
2023-07-18T09:33:25.683Z,53.70
2023-07-18T09:34:25.641Z,51.96
2023-07-18T09:35:25.640Z,52.28
2023-07-18T09:36:25.618Z,52.40
2023-07-18T09:37:25.646Z,52.03
2023-07-18T09:38:25.616Z,49.22
2023-07-18T09:39:25.618Z,48.85
2023-07-18T09:40:25.617Z,48.85
2023-07-18T09:41:25.923Z,49.76
2023-07-18T09:42:25.645Z,46.35
2023-07-18T09:43:25.625Z,46.35
2023-07-18T09:44:32.440Z,46.42
2023-07-18T09:45:25.598Z,47.30
2023-07-18T09:46:25.649Z,46.14
2023-07-18T09:47:25.620Z,47.98
2023-07-18T09:48:25.602Z,46.15
2023-07-18T09:50:25.576Z,45.62
2023-07-18T09:51:25.588Z,45.24
2023-07-18T09:52:25.576Z,47.18
2023-07-18T09:53:25.565Z,46.41
2023-07-18T09:54:25.581Z,46.67
2023-07-18T09:55:25.596Z,47.86
2023-07-18T09:56:25.569Z,47.11
2023-07-18T09:57:25.584Z,45.75
2023-07-18T09:58:25.595Z,48.39
2023-07-18T09:59:25.568Z,45.60
2023-07-18T10:00:25.584Z,45.48
2023-07-18T10:01:25.625Z,45.09
2023-07-18T10:02:25.572Z,44.21
2023-07-18T10:03:25.690Z,44.41
2023-07-18T10:04:25.559Z,44.51
2023-07-18T10:05:25.552Z,44.79
2023-07-18T10:06:25.548Z,44.02
2023-07-18T10:07:25.556Z,46.74
2023-07-18T10:08:25.553Z,46.47
2023-07-18T10:09:25.549Z,44.45
2023-07-18T10:10:25.591Z,43.26
2023-07-18T10:11:25.757Z,44.35
2023-07-18T10:12:25.555Z,43.65
2023-07-18T10:13:25.537Z,44.14
2023-07-18T10:14:25.554Z,44.62
2023-07-18T10:15:25.527Z,45.69
2023-07-18T10:16:25.577Z,43.77
2023-07-18T10:17:25.581Z,43.30
2023-07-18T10:18:25.615Z,44.28
2023-07-18T10:19:25.772Z,43.23
2023-07-18T10:20:25.540Z,42.70
2023-07-18T10:21:25.540Z,42.18
2023-07-18T10:22:25.538Z,44.07
2023-07-18T10:23:25.530Z,45.41
2023-07-18T10:24:25.537Z,45.99
2023-07-18T10:25:25.528Z,46.77
2023-07-18T10:26:25.528Z,46.28
2023-07-18T10:27:25.530Z,46.55
2023-07-18T10:28:25.527Z,45.89
2023-07-18T10:29:25.529Z,46.38
2023-07-18T10:30:25.512Z,46.31
2023-07-18T10:31:25.522Z,47.40
2023-07-18T10:32:25.554Z,45.38
2023-07-18T10:33:25.719Z,44.00
2023-07-18T10:34:25.516Z,44.34
2023-07-18T10:35:25.523Z,45.31
2023-07-18T10:36:25.522Z,45.58
2023-07-18T10:37:25.535Z,46.65
2023-07-18T10:38:25.497Z,46.04
2023-07-18T10:39:25.508Z,47.60
2023-07-18T10:40:25.502Z,46.65
2023-07-18T10:41:25.485Z,47.03
2023-07-18T10:42:25.502Z,46.53
2023-07-18T10:43:25.494Z,47.52
2023-07-18T10:44:25.499Z,46.26
2023-07-18T10:45:25.502Z,47.25
2023-07-18T10:46:25.640Z,47.45
2023-07-18T10:47:25.515Z,46.60
2023-07-18T10:48:25.521Z,47.61
2023-07-18T10:49:25.471Z,44.92
2023-07-18T10:50:25.478Z,45.69
2023-07-18T10:51:25.517Z,45.42
2023-07-18T10:52:25.468Z,44.65
2023-07-18T10:53:25.471Z,43.38
2023-07-18T10:54:25.474Z,43.50
2023-07-18T10:55:25.678Z,42.50
2023-07-18T10:56:25.462Z,43.79
2023-07-18T10:57:25.478Z,42.53
2023-07-18T10:58:25.465Z,43.40
2023-07-18T10:59:25.472Z,42.24
2023-07-18T11:00:25.469Z,43.30
2023-07-18T11:01:25.498Z,41.85
2023-07-18T11:02:25.490Z,41.32
2023-07-18T11:03:25.522Z,42.85
2023-07-18T11:04:25.604Z,44.02
2023-07-18T11:05:25.478Z,45.28
2023-07-18T11:06:25.455Z,45.18
2023-07-18T11:07:25.502Z,44.92
2023-07-18T11:08:25.482Z,45.01
2023-07-18T11:09:25.455Z,44.55
2023-07-18T11:10:25.462Z,45.32
2023-07-18T11:11:25.452Z,45.23
2023-07-18T11:12:25.465Z,44.65
2023-07-18T11:13:25.436Z,43.50
2023-07-18T11:14:25.424Z,44.20
2023-07-18T11:15:25.439Z,41.89
2023-07-18T11:16:25.474Z,42.28
2023-07-18T11:17:25.458Z,41.57
2023-07-18T11:18:25.630Z,41.55
2023-07-18T11:19:25.442Z,43.01
2023-07-18T11:20:25.450Z,42.99
2023-07-18T11:21:25.420Z,44.35
2023-07-18T11:22:25.421Z,45.32
2023-07-18T11:23:25.482Z,44.18
2023-07-18T11:24:25.411Z,44.09
2023-07-18T11:25:25.416Z,42.50
2023-07-18T11:26:25.435Z,43.19
2023-07-18T11:27:25.428Z,43.89
2023-07-18T11:28:25.453Z,42.21
2023-07-18T11:29:25.429Z,43.09
2023-07-18T11:30:25.424Z,45.14
2023-07-18T11:32:25.507Z,43.65
2023-07-18T11:33:25.444Z,44.26
2023-07-18T11:34:25.440Z,44.65
2023-07-18T11:35:25.438Z,45.42
2023-07-18T11:36:25.421Z,42.50
2023-07-18T11:37:25.402Z,42.08
2023-07-18T11:38:25.427Z,44.02
2023-07-18T11:39:25.425Z,43.90
2023-07-18T11:40:25.405Z,44.19
2023-07-18T11:41:25.401Z,45.65
2023-07-18T11:42:25.411Z,45.28
2023-07-18T11:43:25.410Z,45.97
2023-07-18T11:44:25.476Z,45.04
2023-07-18T11:45:25.395Z,43.87
2023-07-18T11:46:25.388Z,43.79
2023-07-18T11:47:25.466Z,44.59
2023-07-18T11:48:25.506Z,43.04
2023-07-18T11:49:25.421Z,41.30
2023-07-18T11:50:26.930Z,41.11
2023-07-18T11:51:25.415Z,40.01
2023-07-18T11:52:25.388Z,41.96
2023-07-18T11:53:25.440Z,42.24
2023-07-18T11:54:25.406Z,42.14
2023-07-18T11:55:25.447Z,42.24
2023-07-18T11:56:25.392Z,43.11
2023-07-18T11:57:25.415Z,42.70
2023-07-18T11:58:25.417Z,43.16
2023-07-18T11:59:25.404Z,44.24
2023-07-18T12:00:25.391Z,43.07
2023-07-18T12:01:25.476Z,45.40
2023-07-18T12:02:25.900Z,44.84
2023-07-18T12:03:25.479Z,44.06
2023-07-18T12:04:25.413Z,44.09
2023-07-18T12:05:26.295Z,42.50
2023-07-18T12:06:25.585Z,44.14
2023-07-18T12:07:25.373Z,43.26
2023-07-18T12:08:26.095Z,43.05
2023-07-18T12:09:25.389Z,43.34
2023-07-18T12:10:26.469Z,44.38
2023-07-18T12:11:25.797Z,44.87
2023-07-18T12:12:25.389Z,45.34
2023-07-18T12:13:25.389Z,45.17
2023-07-18T12:14:25.409Z,45.36
2023-07-18T12:15:25.372Z,45.75
2023-07-18T12:16:25.380Z,45.84
2023-07-18T12:17:25.416Z,46.06
2023-07-18T12:18:25.371Z,45.48
2023-07-18T12:19:25.370Z,45.77
2023-07-18T12:20:25.370Z,45.45
2023-07-18T12:21:25.374Z,45.65
2023-07-18T12:22:25.377Z,45.14
2023-07-18T12:23:25.378Z,45.72
2023-07-18T12:24:25.381Z,46.98
2023-07-18T12:25:25.369Z,46.62
2023-07-18T12:26:26.045Z,46.23
2023-07-18T12:27:25.404Z,46.23
2023-07-18T12:28:25.353Z,46.23
2023-07-18T12:29:25.442Z,46.64
2023-07-18T12:30:25.366Z,45.67
2023-07-18T12:31:25.705Z,46.55
2023-07-18T12:32:28.085Z,45.38
2023-07-18T12:33:25.422Z,45.48
2023-07-18T12:34:25.341Z,44.41
2023-07-18T12:35:25.347Z,44.12
2023-07-18T12:36:25.548Z,44.89
2023-07-18T12:37:25.351Z,45.50
2023-07-18T12:38:26.825Z,44.53
2023-07-18T12:39:25.391Z,44.14
2023-07-18T12:40:25.443Z,45.31
2023-07-18T12:41:25.342Z,45.50
2023-07-18T12:42:25.332Z,44.89
2023-07-18T12:43:25.368Z,45.97
2023-07-18T12:44:28.596Z,45.31
2023-07-18T12:45:25.798Z,44.24
2023-07-18T12:46:25.377Z,43.46
2023-07-18T12:47:25.401Z,44.02
2023-07-18T12:48:25.356Z,45.57
2023-07-18T12:50:27.595Z,44.97
2023-07-18T12:51:25.347Z,44.68
2023-07-18T12:52:25.329Z,44.38
2023-07-18T12:53:25.337Z,44.95
2023-07-18T12:54:25.319Z,44.46
2023-07-18T12:55:25.302Z,45.92